Time;durP1;ratioP1;P1;durP2;ratioP2;P2;SDS_P1;SDS_P2;PMS_P1;PMS_P2;Temp;Humidity;BMP_temperature;BMP_pressure;BME280_temperature;BME280_humidity;BME280_pressure;Samples;Min_cycle;Max_cycle;Signal;HPM_P1;HPM_P2
2023/12/12 00:01:09;;;;;;;9.93;2.93;;;9.10;99.90;;;;;;5041403;28;20461;-69
2023/12/12 00:03:37;;;;;;;15.23;2.90;;;9.10;99.90;;;;;;5042619;28;20539;-67
2023/12/12 00:06:08;;;;;;;10.13;3.10;;;9.10;99.90;;;;;;5042239;28;20591;-69
2023/12/12 00:08:36;;;;;;;15.63;2.67;;;9.10;99.90;;;;;;5043090;28;20501;-68
2023/12/12 00:11:05;;;;;;;10.10;3.10;;;9.00;99.90;;;;;;5043352;28;20447;-69
2023/12/12 00:13:33;;;;;;;11.30;3.20;;;8.90;99.90;;;;;;5043216;28;20525;-68
2023/12/12 00:16:03;;;;;;;9.03;2.30;;;8.80;99.90;;;;;;5045144;28;20538;-68
2023/12/12 00:18:33;;;;;;;9.00;1.97;;;8.80;99.90;;;;;;5043698;28;20450;-69
2023/12/12 00:21:01;;;;;;;10.17;2.47;;;8.90;99.90;;;;;;5043929;28;20447;-68
2023/12/12 00:23:29;;;;;;;11.03;3.40;;;8.80;99.90;;;;;;5043467;28;20921;-69
2023/12/12 00:25:58;;;;;;;9.60;2.20;;;8.80;99.90;;;;;;5043216;28;20585;-69
2023/12/12 00:28:26;;;;;;;10.60;2.30;;;8.80;99.90;;;;;;5042544;28;21118;-67
2023/12/12 00:30:54;;;;;;;12.80;2.40;;;8.70;99.90;;;;;;5047084;28;20482;-69
2023/12/12 00:33:23;;;;;;;13.27;3.03;;;8.70;99.90;;;;;;5046665;28;21016;-68
2023/12/12 00:35:51;;;;;;;12.70;2.37;;;8.60;99.90;;;;;;5047293;28;20454;-68
2023/12/12 00:38:19;;;;;;;9.87;2.13;;;8.50;99.90;;;;;;5048333;28;20550;-68
2023/12/12 00:40:53;;;;;;;10.83;2.70;;;8.50;99.90;;;;;;5047770;28;20450;-67
2023/12/12 00:43:21;;;;;;;12.40;2.40;;;8.50;99.90;;;;;;5043122;28;20489;-67
2023/12/12 00:45:49;;;;;;;9.93;2.63;;;8.60;99.90;;;;;;5044618;28;20516;-68
2023/12/12 00:48:17;;;;;;;9.60;2.80;;;8.60;99.90;;;;;;5047808;28;20545;-67
2023/12/12 00:50:48;;;;;;;11.53;2.37;;;8.70;99.90;;;;;;5047407;28;20482;-69
2023/12/12 00:53:16;;;;;;;10.27;2.30;;;8.60;99.90;;;;;;5047392;28;20664;-66
2023/12/12 00:55:44;;;;;;;9.43;2.30;;;8.70;99.90;;;;;;5047573;28;20641;-68
2023/12/12 00:58:12;;;;;;;11.70;2.37;;;8.70;99.90;;;;;;5047851;28;20548;-69
2023/12/12 01:00:40;;;;;;;8.90;1.70;;;8.80;99.90;;;;;;5045569;28;20752;-68
2023/12/12 01:03:08;;;;;;;11.70;2.83;;;8.80;99.90;;;;;;5045073;28;20446;-67
2023/12/12 01:05:37;;;;;;;10.03;2.37;;;8.80;99.90;;;;;;5045881;28;20539;-69
2023/12/12 01:08:06;;;;;;;8.67;2.20;;;8.80;99.90;;;;;;5046337;28;20486;-69
2023/12/12 01:10:34;;;;;;;12.07;2.60;;;8.80;99.90;;;;;;5045907;28;20458;-70
2023/12/12 01:13:04;;;;;;;8.73;1.97;;;8.90;99.90;;;;;;5045831;28;20443;-69
2023/12/12 01:15:32;;;;;;;10.70;1.97;;;8.90;99.90;;;;;;5045889;28;20458;-69
2023/12/12 01:18:00;;;;;;;8.40;2.20;;;8.80;99.90;;;;;;5053436;28;20534;-69
2023/12/12 01:20:28;;;;;;;10.07;2.40;;;8.90;99.90;;;;;;5046527;28;20455;-69
2023/12/12 01:22:55;;;;;;;7.80;1.70;;;8.90;99.90;;;;;;5036900;28;20474;-70
2023/12/12 01:25:25;;;;;;;9.40;1.87;;;8.90;99.90;;;;;;5044892;28;20448;-68
2023/12/12 01:27:53;;;;;;;7.97;1.77;;;8.90;99.90;;;;;;5043062;28;20490;-69
2023/12/12 01:30:21;;;;;;;11.00;2.40;;;8.90;99.90;;;;;;5041942;28;21260;-69
2023/12/12 01:32:49;;;;;;;10.47;2.30;;;8.90;99.90;;;;;;5042829;28;21038;-69
2023/12/12 01:35:17;;;;;;;11.03;2.53;;;8.90;99.90;;;;;;5045296;28;20553;-70
2023/12/12 01:37:45;;;;;;;9.33;2.17;;;8.90;99.90;;;;;;5048407;28;20542;-70
2023/12/12 01:40:13;;;;;;;10.13;2.43;;;8.90;99.90;;;;;;5044094;28;20820;-70
2023/12/12 01:42:42;;;;;;;11.70;1.70;;;8.90;99.90;;;;;;5043605;28;20552;-69
2023/12/12 01:45:10;;;;;;;11.27;2.20;;;9.10;99.90;;;;;;5044306;28;20883;-66
2023/12/12 01:47:39;;;;;;;11.60;2.03;;;9.00;99.90;;;;;;5045464;28;20837;-67
2023/12/12 01:50:08;;;;;;;12.20;2.40;;;9.00;99.90;;;;;;5045509;28;20458;-68
2023/12/12 01:52:37;;;;;;;8.50;1.70;;;8.90;99.90;;;;;;5044439;28;20466;-69
2023/12/12 01:55:05;;;;;;;9.83;2.83;;;8.90;99.90;;;;;;5043888;28;20836;-69
2023/12/12 01:57:33;;;;;;;6.77;1.73;;;8.90;99.90;;;;;;5045601;28;20528;-70
2023/12/12 02:00:02;;;;;;;10.60;1.90;;;9.00;99.90;;;;;;5044517;28;20452;-70
2023/12/12 02:02:30;;;;;;;10.40;2.37;;;9.10;99.90;;;;;;5044814;28;21275;-69
2023/12/12 02:04:58;;;;;;;16.00;3.53;;;9.10;99.90;;;;;;5044543;28;20479;-69
2023/12/12 02:07:29;;;;;;;8.77;2.03;;;9.00;99.90;;;;;;5045170;28;20487;-70
2023/12/12 02:09:57;;;;;;;9.30;2.93;;;9.10;99.90;;;;;;5044684;28;20451;-68
2023/12/12 02:12:26;;;;;;;9.33;1.73;;;9.20;99.90;;;;;;5038549;28;20455;-68
2023/12/12 02:14:54;;;;;;;9.27;1.50;;;9.10;99.90;;;;;;5044242;28;20835;-69
2023/12/12 02:17:23;;;;;;;9.80;1.90;;;9.00;99.90;;;;;;5044808;28;20451;-67
2023/12/12 02:19:51;;;;;;;10.97;2.63;;;8.90;99.90;;;;;;5045100;28;20458;-69
2023/12/12 02:22:21;;;;;;;12.20;2.10;;;8.70;99.90;;;;;;5044555;28;20462;-69
2023/12/12 02:24:49;;;;;;;9.90;2.00;;;8.60;99.90;;;;;;5044525;28;20591;-69
2023/12/12 02:27:18;;;;;;;8.20;1.73;;;8.50;99.90;;;;;;5043426;28;21080;-68
2023/12/12 02:29:46;;;;;;;8.27;1.80;;;8.30;99.90;;;;;;5039541;28;20453;-69
2023/12/12 02:32:13;;;;;;;11.53;1.87;;;8.20;99.90;;;;;;5044494;28;20534;-68
2023/12/12 02:34:41;;;;;;;12.47;2.90;;;8.00;99.90;;;;;;5038571;28;20472;-68
2023/12/12 02:37:09;;;;;;;7.80;1.80;;;7.90;99.90;;;;;;5045032;28;20474;-69
2023/12/12 02:39:39;;;;;;;7.53;1.57;;;7.80;99.90;;;;;;5037662;28;20840;-69
2023/12/12 02:42:06;;;;;;;7.67;1.50;;;7.70;99.90;;;;;;5043804;28;20459;-69
2023/12/12 02:44:34;;;;;;;8.87;1.90;;;7.80;99.90;;;;;;5043304;28;20477;-68
2023/12/12 02:47:02;;;;;;;7.53;1.97;;;7.90;99.90;;;;;;5044670;28;20537;-69
2023/12/12 02:49:30;;;;;;;8.80;1.43;;;8.00;99.90;;;;;;5042927;28;20464;-68
2023/12/12 02:51:58;;;;;;;10.37;1.70;;;7.90;99.90;;;;;;5043989;28;20473;-69
2023/12/12 02:54:26;;;;;;;11.60;1.57;;;7.80;99.90;;;;;;5046505;28;20479;-68
2023/12/12 02:56:56;;;;;;;11.57;1.57;;;7.80;99.90;;;;;;5047152;28;20450;-68
2023/12/12 02:59:24;;;;;;;10.80;2.07;;;7.60;99.90;;;;;;5040813;28;21203;-69
2023/12/12 03:01:52;;;;;;;8.63;2.10;;;7.60;99.90;;;;;;5041891;28;20537;-69
2023/12/12 03:04:20;;;;;;;14.90;2.90;;;7.50;99.90;;;;;;5044707;28;20508;-69
2023/12/12 03:06:48;;;;;;;7.90;2.17;;;7.40;99.90;;;;;;5045171;28;20456;-69
2023/12/12 03:09:16;;;;;;;11.73;2.00;;;7.20;99.90;;;;;;5045175;28;20549;-69
2023/12/12 03:11:45;;;;;;;9.20;2.07;;;7.10;99.90;;;;;;5043921;28;20466;-69
2023/12/12 03:14:15;;;;;;;10.20;2.10;;;7.00;99.90;;;;;;5035033;28;21128;-67
2023/12/12 03:16:43;;;;;;;9.43;2.30;;;6.90;99.90;;;;;;5044042;28;20521;-68
2023/12/12 03:19:11;;;;;;;11.53;3.40;;;6.90;99.90;;;;;;5044334;28;20925;-69
2023/12/12 03:21:39;;;;;;;8.50;2.10;;;7.00;99.90;;;;;;5043727;28;20453;-68
2023/12/12 03:24:07;;;;;;;7.70;1.70;;;7.10;99.90;;;;;;5046546;28;20531;-69
2023/12/12 03:26:35;;;;;;;11.47;2.40;;;7.10;99.90;;;;;;5041394;28;20464;-68
2023/12/12 03:29:03;;;;;;;9.90;1.80;;;7.00;99.90;;;;;;5043804;28;20480;-69
2023/12/12 03:31:32;;;;;;;7.80;1.60;;;6.90;99.90;;;;;;5043288;28;20453;-69
2023/12/12 03:34:00;;;;;;;11.13;1.77;;;6.80;99.90;;;;;;5043378;28;20465;-68
2023/12/12 03:36:28;;;;;;;7.20;1.87;;;6.70;99.90;;;;;;5036772;28;21340;-68
2023/12/12 03:38:56;;;;;;;8.00;1.83;;;6.60;99.90;;;;;;5042762;28;20458;-68
2023/12/12 03:41:25;;;;;;;9.70;2.17;;;6.50;99.90;;;;;;5044695;28;20561;-68
2023/12/12 03:43:53;;;;;;;7.73;1.90;;;6.50;99.90;;;;;;5043981;28;20534;-68
2023/12/12 03:46:22;;;;;;;11.20;1.60;;;6.70;99.90;;;;;;5044546;28;20443;-68
2023/12/12 03:48:51;;;;;;;9.00;1.87;;;6.80;99.90;;;;;;5044133;28;20569;-68
2023/12/12 03:51:19;;;;;;;9.83;1.80;;;7.00;99.90;;;;;;5045256;28;20447;-69
2023/12/12 03:53:47;;;;;;;8.20;1.63;;;7.10;99.90;;;;;;5044365;28;20576;-68
2023/12/12 03:56:15;;;;;;;10.83;1.87;;;7.40;99.90;;;;;;5043186;28;20536;-69
2023/12/12 03:58:43;;;;;;;9.53;2.07;;;7.60;99.90;;;;;;5043225;28;21126;-69
2023/12/12 04:01:11;;;;;;;9.17;2.03;;;7.70;99.90;;;;;;5042097;28;20476;-69
2023/12/12 04:03:39;;;;;;;10.37;1.50;;;7.80;99.90;;;;;;5044429;28;20530;-69
2023/12/12 04:06:10;;;;;;;8.43;1.50;;;7.80;99.90;;;;;;5047152;28;20586;-69
2023/12/12 04:08:38;;;;;;;7.77;1.83;;;7.80;99.90;;;;;;5042936;28;21021;-69
2023/12/12 04:11:06;;;;;;;9.40;1.80;;;7.90;99.90;;;;;;5047357;28;20455;-68
2023/12/12 04:13:34;;;;;;;8.23;1.80;;;7.90;99.90;;;;;;5047156;28;20488;-68
2023/12/12 04:16:03;;;;;;;11.80;1.70;;;7.90;99.90;;;;;;5046589;28;20449;-68
2023/12/12 04:18:31;;;;;;;9.00;2.70;;;8.00;99.90;;;;;;5050210;28;21035;-66
2023/12/12 04:20:59;;;;;;;7.23;1.70;;;7.90;99.90;;;;;;5045506;28;20469;-69
2023/12/12 04:23:28;;;;;;;8.00;1.43;;;7.70;99.90;;;;;;5046248;28;20482;-68
2023/12/12 04:25:56;;;;;;;6.50;1.30;;;7.50;99.90;;;;;;5048092;28;20482;-67
2023/12/12 04:28:24;;;;;;;8.67;2.27;;;7.30;99.90;;;;;;5048209;28;20479;-69
2023/12/12 04:30:52;;;;;;;9.07;2.07;;;7.10;99.90;;;;;;5051693;28;20474;-68
2023/12/12 04:33:20;;;;;;;7.53;1.60;;;7.00;99.90;;;;;;5044225;28;20468;-68
2023/12/12 04:35:48;;;;;;;8.93;1.70;;;6.90;99.90;;;;;;5047879;28;20458;-67
2023/12/12 04:38:16;;;;;;;10.57;2.37;;;6.90;99.90;;;;;;5047495;28;20440;-68
2023/12/12 04:40:45;;;;;;;9.73;1.53;;;6.90;99.90;;;;;;5047143;28;20509;-68
2023/12/12 04:43:13;;;;;;;13.73;2.00;;;6.90;99.90;;;;;;5045164;28;20469;-69
2023/12/12 04:45:42;;;;;;;11.03;1.70;;;6.90;99.90;;;;;;5040801;28;20456;-68
2023/12/12 04:48:10;;;;;;;7.93;1.63;;;6.90;99.90;;;;;;5046701;28;20491;-68
2023/12/12 04:50:38;;;;;;;9.60;2.30;;;6.90;99.90;;;;;;5047027;28;20452;-69
2023/12/12 04:53:06;;;;;;;9.10;1.93;;;6.80;99.90;;;;;;5045683;28;20464;-67
2023/12/12 04:55:34;;;;;;;7.00;1.87;;;6.70;99.90;;;;;;5045552;28;20483;-69
2023/12/12 04:58:04;;;;;;;11.33;2.00;;;6.60;99.90;;;;;;5046570;28;20554;-68
2023/12/12 05:00:31;;;;;;;9.43;2.00;;;6.50;99.90;;;;;;5046440;28;20471;-69
2023/12/12 05:03:00;;;;;;;13.13;2.40;;;6.40;99.90;;;;;;5046052;28;20942;-69
2023/12/12 05:05:28;;;;;;;7.00;1.90;;;6.20;99.90;;;;;;5038333;28;20468;-69
2023/12/12 05:07:56;;;;;;;12.33;2.10;;;6.10;99.90;;;;;;5045224;28;21051;-70
2023/12/12 05:10:24;;;;;;;11.73;2.40;;;6.10;99.90;;;;;;5044415;28;20483;-68
2023/12/12 05:12:52;;;;;;;10.90;2.17;;;6.10;99.90;;;;;;5045611;28;20455;-69
2023/12/12 05:15:22;;;;;;;10.03;2.50;;;6.10;99.90;;;;;;5045521;28;20460;-68
2023/12/12 05:17:50;;;;;;;8.63;2.10;;;6.10;99.90;;;;;;5046779;28;20441;-69
2023/12/12 05:20:18;;;;;;;10.33;3.40;;;6.10;99.90;;;;;;5044323;28;20481;-69
2023/12/12 05:22:46;;;;;;;11.97;2.40;;;6.20;99.90;;;;;;5039692;28;21005;-69
2023/12/12 05:25:14;;;;;;;10.10;2.30;;;6.30;99.90;;;;;;5045654;28;20452;-67
2023/12/12 05:27:42;;;;;;;8.90;2.00;;;6.40;99.90;;;;;;5054526;28;20440;-69
2023/12/12 05:30:12;;;;;;;8.77;1.90;;;6.60;99.90;;;;;;5046014;28;20480;-69
2023/12/12 05:32:42;;;;;;;10.20;1.90;;;6.60;99.90;;;;;;5045658;28;20440;-69
2023/12/12 05:35:10;;;;;;;11.30;3.13;;;6.70;99.90;;;;;;5044424;28;20471;-69
2023/12/12 05:37:38;;;;;;;12.00;2.03;;;6.80;99.90;;;;;;5045182;28;20823;-66
2023/12/12 05:40:07;;;;;;;9.90;2.23;;;6.90;99.90;;;;;;5043284;28;20985;-69
2023/12/12 05:42:35;;;;;;;11.27;2.50;;;7.10;99.90;;;;;;5046876;28;20530;-69
2023/12/12 05:45:03;;;;;;;12.20;2.53;;;7.00;99.90;;;;;;5045720;28;20464;-69
2023/12/12 05:47:31;;;;;;;9.50;3.00;;;7.00;99.90;;;;;;5040862;28;20479;-70
2023/12/12 05:50:02;;;;;;;8.33;2.43;;;6.90;99.90;;;;;;5044594;28;21053;-70
2023/12/12 05:52:30;;;;;;;10.20;3.17;;;7.00;99.90;;;;;;5045500;28;20436;-69
2023/12/12 05:54:58;;;;;;;9.73;4.03;;;7.00;99.90;;;;;;5045127;28;20460;-68
2023/12/12 05:57:27;;;;;;;10.20;3.07;;;7.00;99.90;;;;;;5046764;28;20475;-67
2023/12/12 05:59:56;;;;;;;9.03;2.57;;;6.90;99.90;;;;;;5046992;28;20438;-68
2023/12/12 06:02:24;;;;;;;10.30;2.57;;;6.90;99.90;;;;;;5044340;28;20450;-69
2023/12/12 06:04:52;;;;;;;10.30;2.73;;;6.80;99.90;;;;;;5044191;28;20609;-69
2023/12/12 06:07:22;;;;;;;7.50;2.40;;;6.80;99.90;;;;;;5052427;28;20444;-66
2023/12/12 06:09:50;;;;;;;11.70;2.97;;;6.90;99.90;;;;;;5039427;28;20500;-68
2023/12/12 06:12:18;;;;;;;10.80;2.63;;;6.90;99.90;;;;;;5036285;28;20481;-69
2023/12/12 06:14:46;;;;;;;9.20;3.37;;;7.00;99.90;;;;;;5043644;28;20582;-66
2023/12/12 06:17:13;;;;;;;10.80;2.70;;;7.10;99.90;;;;;;5042031;28;20443;-68
2023/12/12 06:19:41;;;;;;;13.57;3.33;;;7.10;99.90;;;;;;5041497;28;20494;-68
2023/12/12 06:22:10;;;;;;;10.63;3.20;;;7.10;99.90;;;;;;5045110;28;20472;-68
2023/12/12 06:24:39;;;;;;;9.03;2.60;;;7.20;99.90;;;;;;5044446;28;21010;-68
2023/12/12 06:27:07;;;;;;;10.17;3.03;;;7.20;99.90;;;;;;5050942;28;20465;-67
2023/12/12 06:29:35;;;;;;;9.07;3.30;;;7.10;99.90;;;;;;5043537;28;20511;-67
2023/12/12 06:32:03;;;;;;;12.27;3.20;;;7.00;99.90;;;;;;5044110;28;20449;-68
2023/12/12 06:34:31;;;;;;;9.80;3.50;;;6.90;99.90;;;;;;5043370;28;20469;-67
2023/12/12 06:37:00;;;;;;;12.23;2.60;;;6.90;99.90;;;;;;5043399;28;20456;-67
2023/12/12 06:39:28;;;;;;;13.10;4.10;;;7.00;99.90;;;;;;5042195;28;20452;-66
2023/12/12 06:41:58;;;;;;;7.40;2.03;;;7.10;99.90;;;;;;5043847;28;20443;-68
2023/12/12 06:44:26;;;;;;;9.50;2.30;;;7.10;99.90;;;;;;5036017;28;21424;-67
2023/12/12 06:46:54;;;;;;;12.60;2.87;;;7.20;99.90;;;;;;5041591;28;20628;-65
2023/12/12 06:49:22;;;;;;;9.23;2.17;;;7.30;99.90;;;;;;5044287;28;20480;-65
2023/12/12 06:51:50;;;;;;;8.00;2.30;;;7.30;99.90;;;;;;5043790;28;21137;-67
2023/12/12 06:54:18;;;;;;;6.90;2.03;;;7.30;99.90;;;;;;5031417;28;20472;-67
2023/12/12 06:56:46;;;;;;;9.70;1.90;;;7.30;99.90;;;;;;5044145;28;20554;-68
2023/12/12 06:59:15;;;;;;;10.37;2.00;;;7.20;99.90;;;;;;5044119;28;20459;-66
2023/12/12 07:01:43;;;;;;;9.70;3.23;;;7.20;99.90;;;;;;5044528;28;20451;-67
2023/12/12 07:04:12;;;;;;;8.23;2.00;;;7.20;99.90;;;;;;5042468;28;20522;-66
2023/12/12 07:06:43;;;;;;;8.70;2.70;;;7.40;99.90;;;;;;5042772;28;20464;-66
2023/12/12 07:09:12;;;;;;;10.20;2.80;;;7.40;99.90;;;;;;5044029;28;20541;-66
2023/12/12 07:11:44;;;;;;;10.60;2.67;;;7.40;99.90;;;;;;5044205;28;20728;-67
2023/12/12 07:14:12;;;;;;;9.47;2.40;;;7.40;99.90;;;;;;5044370;28;20835;-65
2023/12/12 07:16:41;;;;;;;7.67;1.90;;;7.40;99.90;;;;;;5040747;28;20540;-67
2023/12/12 07:19:09;;;;;;;9.10;2.17;;;7.40;99.90;;;;;;5039265;28;20450;-66
2023/12/12 07:21:41;;;;;;;10.77;3.10;;;7.50;99.90;;;;;;5036696;28;20492;-65
2023/12/12 07:24:10;;;;;;;13.40;2.70;;;7.60;99.90;;;;;;5037189;28;20530;-67
2023/12/12 07:26:38;;;;;;;10.40;2.80;;;7.70;99.90;;;;;;5038341;28;20449;-65
2023/12/12 07:29:06;;;;;;;11.50;2.83;;;7.70;99.90;;;;;;5044035;28;20556;-65
2023/12/12 07:31:34;;;;;;;10.60;1.93;;;7.70;99.90;;;;;;5043937;28;20483;-68
2023/12/12 07:34:05;;;;;;;9.20;2.07;;;7.70;99.90;;;;;;5043859;28;20478;-66
2023/12/12 07:36:34;;;;;;;11.90;2.60;;;7.70;99.90;;;;;;5044132;28;20464;-68
2023/12/12 07:39:02;;;;;;;8.63;2.00;;;7.80;99.90;;;;;;5056219;28;20508;-67
2023/12/12 07:41:32;;;;;;;9.60;2.80;;;7.80;99.90;;;;;;5038675;28;20438;-68
2023/12/12 07:44:00;;;;;;;9.83;3.00;;;7.80;99.90;;;;;;5040833;28;20556;-69
2023/12/12 07:46:28;;;;;;;13.43;2.57;;;7.90;99.90;;;;;;5047095;28;20544;-69
2023/12/12 07:48:56;;;;;;;7.27;2.00;;;7.90;99.90;;;;;;5042360;28;20436;-68
2023/12/12 07:51:27;;;;;;;9.80;2.10;;;7.90;99.90;;;;;;5044292;28;20586;-70
2023/12/12 07:53:56;;;;;;;7.83;2.20;;;8.00;99.90;;;;;;5044463;28;20569;-68
2023/12/12 07:56:24;;;;;;;9.77;2.53;;;8.00;99.90;;;;;;5043323;28;20538;-68
2023/12/12 07:58:52;;;;;;;9.17;2.37;;;8.10;99.90;;;;;;5048902;28;20455;-67
2023/12/12 08:01:20;;;;;;;8.13;2.20;;;8.10;99.90;;;;;;5045319;28;20509;-67
2023/12/12 08:03:48;;;;;;;8.80;2.00;;;8.10;99.90;;;;;;5044349;28;20835;-67
2023/12/12 08:06:16;;;;;;;7.20;2.13;;;8.10;99.90;;;;;;5048499;28;20478;-67
2023/12/12 08:08:49;;;;;;;10.20;2.30;;;8.10;99.90;;;;;;5056797;28;20865;-67
2023/12/12 08:11:17;;;;;;;9.57;2.83;;;8.10;99.90;;;;;;5049329;28;20505;-67
2023/12/12 08:13:45;;;;;;;9.67;2.63;;;8.10;99.90;;;;;;5048484;28;20471;-67
2023/12/12 08:16:13;;;;;;;8.10;2.60;;;8.10;99.90;;;;;;5048265;28;20460;-68
2023/12/12 08:18:41;;;;;;;9.07;2.33;;;8.20;99.90;;;;;;5054365;28;20455;-67
2023/12/12 08:21:09;;;;;;;11.00;3.20;;;8.30;99.90;;;;;;5049196;28;20454;-66
2023/12/12 08:23:41;;;;;;;8.53;3.10;;;8.30;99.90;;;;;;5047478;28;20544;-66
2023/12/12 08:26:11;;;;;;;11.97;2.50;;;8.40;99.90;;;;;;5047067;28;20449;-68
2023/12/12 08:28:39;;;;;;;10.20;3.07;;;8.50;99.90;;;;;;5047289;28;20455;-68
2023/12/12 08:31:07;;;;;;;8.90;3.37;;;8.50;99.90;;;;;;5047075;28;20487;-68
2023/12/12 08:33:35;;;;;;;11.00;3.07;;;8.50;99.90;;;;;;5046954;28;20475;-68
2023/12/12 08:36:03;;;;;;;9.13;3.50;;;8.60;99.90;;;;;;5043932;28;21087;-67
2023/12/12 08:38:31;;;;;;;9.30;2.93;;;8.70;99.90;;;;;;5043666;28;20447;-67
2023/12/12 08:41:00;;;;;;;8.23;2.33;;;8.80;99.90;;;;;;5042047;28;20440;-66
2023/12/12 08:43:29;;;;;;;10.33;3.77;;;8.90;99.90;;;;;;5041935;28;20539;-65
2023/12/12 08:45:57;;;;;;;12.00;3.87;;;8.90;99.90;;;;;;5040990;28;20953;-64
2023/12/12 08:48:25;;;;;;;11.10;3.00;;;9.00;99.90;;;;;;5043892;28;20448;-67
2023/12/12 08:50:53;;;;;;;10.10;3.00;;;9.10;99.90;;;;;;5041488;28;20487;-67
2023/12/12 08:53:26;;;;;;;8.20;2.53;;;9.10;99.90;;;;;;5040383;28;20466;-65
2023/12/12 08:55:55;;;;;;;7.33;2.17;;;9.00;99.90;;;;;;5041104;28;20445;-67
2023/12/12 08:58:25;;;;;;;9.23;2.27;;;9.00;99.90;;;;;;5041195;28;20548;-68
2023/12/12 09:00:55;;;;;;;7.93;2.97;;;9.10;99.90;;;;;;5041740;28;20447;-69
2023/12/12 09:03:23;;;;;;;10.60;2.83;;;9.30;99.90;;;;;;5038964;28;20530;-68
2023/12/12 09:05:51;;;;;;;8.97;2.93;;;9.50;99.90;;;;;;5040874;28;21195;-68
2023/12/12 09:08:19;;;;;;;8.80;3.13;;;9.60;99.90;;;;;;5041814;28;20453;-67
2023/12/12 09:10:47;;;;;;;8.63;2.87;;;9.70;99.90;;;;;;5042062;28;20573;-68
2023/12/12 09:13:15;;;;;;;8.47;2.53;;;9.60;99.90;;;;;;5041446;28;20485;-68
2023/12/12 09:15:43;;;;;;;9.00;3.20;;;9.60;99.90;;;;;;5042235;28;20450;-68
2023/12/12 09:18:12;;;;;;;10.30;2.33;;;9.60;99.90;;;;;;5040149;28;20477;-68
2023/12/12 09:20:47;;;;;;;9.33;2.70;;;9.60;99.90;;;;;;5042514;28;20445;-68
2023/12/12 09:23:17;;;;;;;11.87;3.20;;;9.70;99.90;;;;;;5041540;28;20454;-68
2023/12/12 09:25:45;;;;;;;9.50;3.50;;;9.70;99.90;;;;;;5042132;28;20461;-66
2023/12/12 09:28:14;;;;;;;11.10;3.50;;;9.60;99.90;;;;;;5041089;28;20466;-66
2023/12/12 09:30:42;;;;;;;9.13;3.10;;;9.70;99.90;;;;;;5042434;28;21036;-70
2023/12/12 09:33:12;;;;;;;10.27;2.87;;;9.60;99.90;;;;;;5041496;28;20537;-70
2023/12/12 09:35:40;;;;;;;9.13;3.17;;;9.60;99.90;;;;;;5039824;28;20963;-67
2023/12/12 09:38:08;;;;;;;9.03;3.23;;;9.50;99.90;;;;;;5040090;28;20458;-68
2023/12/12 09:40:37;;;;;;;7.87;2.90;;;9.40;99.90;;;;;;5041836;28;20576;-65
2023/12/12 09:43:05;;;;;;;8.90;3.87;;;9.50;99.90;;;;;;5040274;28;20464;-68
2023/12/12 09:45:34;;;;;;;13.00;4.80;;;9.50;99.90;;;;;;5035893;28;20549;-67
2023/12/12 09:48:02;;;;;;;10.70;3.90;;;9.50;99.90;;;;;;5037887;28;20503;-67
2023/12/12 09:50:32;;;;;;;15.70;5.00;;;9.50;99.90;;;;;;5040322;28;20446;-66
2023/12/12 09:53:01;;;;;;;10.73;4.70;;;9.50;99.90;;;;;;5040251;28;20947;-67
2023/12/12 09:55:30;;;;;;;11.37;4.20;;;9.40;99.90;;;;;;5038267;28;20884;-69
2023/12/12 09:57:58;;;;;;;15.53;4.87;;;9.40;99.90;;;;;;5040087;28;20467;-68
2023/12/12 10:00:26;;;;;;;16.07;4.97;;;9.30;99.90;;;;;;5040454;28;20509;-68
2023/12/12 10:02:58;;;;;;;14.63;4.50;;;9.30;99.90;;;;;;5035863;28;20440;-66
2023/12/12 10:05:27;;;;;;;9.80;4.03;;;9.20;99.90;;;;;;5036199;28;20888;-66
2023/12/12 10:07:57;;;;;;;15.10;4.60;;;9.20;99.90;;;;;;5036769;28;20534;-66
2023/12/12 10:10:35;;;;;;;10.83;4.00;;;9.20;99.90;;;;;;5038184;28;20446;-68
2023/12/12 10:13:03;;;;;;;13.50;4.03;;;9.20;99.90;;;;;;5036937;28;20520;-68
2023/12/12 10:15:31;;;;;;;10.70;3.30;;;9.30;99.90;;;;;;5038222;28;21029;-68
2023/12/12 10:18:00;;;;;;;9.70;3.30;;;9.40;99.90;;;;;;5045584;28;20457;-67
2023/12/12 10:20:30;;;;;;;10.63;3.53;;;9.30;99.90;;;;;;5045146;28;20965;-68
2023/12/12 10:23:05;;;;;;;11.13;3.87;;;9.30;99.90;;;;;;5058447;27;1991559;-68
2023/12/12 10:25:35;;;;;;;11.23;3.67;;;9.40;99.90;;;;;;5121052;28;20899;-69
2023/12/12 10:28:03;;;;;;;8.90;3.20;;;9.40;99.90;;;;;;5120347;28;20446;-67
2023/12/12 10:30:31;;;;;;;9.83;2.90;;;9.30;99.90;;;;;;5109174;28;20518;-68
2023/12/12 10:32:59;;;;;;;10.53;3.00;;;9.30;99.90;;;;;;5108560;28;20523;-67
2023/12/12 10:35:30;;;;;;;9.30;3.00;;;9.40;99.90;;;;;;5111972;28;20842;-67
2023/12/12 10:38:09;;;;;;;8.10;2.77;;;9.40;99.90;;;;;;5108218;28;20439;-65
2023/12/12 10:40:37;;;;;;;7.83;2.50;;;9.30;99.90;;;;;;5110591;28;20445;-68
2023/12/12 10:43:07;;;;;;;9.07;3.17;;;9.30;99.90;;;;;;5109205;28;20483;-66
2023/12/12 10:45:38;;;;;;;9.13;3.10;;;9.30;99.90;;;;;;5109165;28;20437;-68
2023/12/12 10:48:07;;;;;;;8.73;2.43;;;9.30;99.90;;;;;;5112879;28;20615;-69
2023/12/12 10:50:36;;;;;;;9.90;3.10;;;9.30;99.90;;;;;;5108697;28;20437;-68
2023/12/12 10:53:07;;;;;;;8.07;2.07;;;9.30;99.90;;;;;;5105737;28;20437;-68
2023/12/12 10:55:35;;;;;;;7.60;2.70;;;9.20;99.90;;;;;;5105880;27;20464;-69
2023/12/12 10:58:04;;;;;;;7.80;2.50;;;9.20;99.90;;;;;;5108763;27;20537;-70
2023/12/12 11:00:33;;;;;;;9.40;2.70;;;9.20;99.90;;;;;;5110139;27;20489;-66
2023/12/12 11:03:02;;;;;;;8.80;2.87;;;9.10;99.90;;;;;;5119635;27;20480;-69
2023/12/12 11:05:30;;;;;;;8.73;2.47;;;9.20;99.90;;;;;;5109802;28;20447;-70
2023/12/12 11:07:59;;;;;;;10.53;2.80;;;9.20;99.90;;;;;;5108864;28;21071;-67
2023/12/12 11:10:30;;;;;;;9.07;3.10;;;9.30;99.90;;;;;;5110259;28;20448;-68
2023/12/12 11:13:02;;;;;;;8.63;2.27;;;9.40;99.90;;;;;;5108459;28;20457;-67
2023/12/12 11:15:31;;;;;;;8.60;2.77;;;9.60;99.90;;;;;;5113442;28;20475;-67
2023/12/12 11:17:59;;;;;;;7.27;2.23;;;9.70;99.90;;;;;;5120235;28;20492;-70
2023/12/12 11:20:29;;;;;;;8.83;2.13;;;9.80;99.90;;;;;;5126891;27;20482;-69
2023/12/12 11:22:58;;;;;;;8.20;2.40;;;9.70;99.90;;;;;;5117882;27;20482;-67
2023/12/12 11:25:31;;;;;;;8.27;2.20;;;9.60;99.90;;;;;;5106162;27;21016;-68
2023/12/12 11:27:59;;;;;;;7.33;2.47;;;9.60;99.90;;;;;;5116797;27;20445;-69
2023/12/12 11:30:31;;;;;;;8.93;2.40;;;9.60;99.90;;;;;;5122112;27;20468;-68
2023/12/12 11:33:00;;;;;;;8.23;2.10;;;9.50;99.90;;;;;;5112998;27;20452;-70
2023/12/12 11:35:30;;;;;;;8.20;2.87;;;9.50;99.90;;;;;;5098564;28;20514;-70
2023/12/12 11:38:00;;;;;;;9.40;3.50;;;9.50;99.90;;;;;;5088602;28;21155;-69
2023/12/12 11:40:29;;;;;;;7.47;1.93;;;9.60;99.90;;;;;;5098377;28;20879;-68
2023/12/12 11:43:17;;;;;;;10.20;2.97;;;9.60;99.90;;;;;;5093710;28;20484;-67
2023/12/12 11:45:46;;;;;;;7.60;1.90;;;9.70;99.90;;;;;;5100307;28;20457;-69
2023/12/12 11:48:14;;;;;;;8.63;2.30;;;9.80;99.90;;;;;;5106992;28;20451;-68
2023/12/12 11:50:43;;;;;;;8.93;1.90;;;9.90;99.90;;;;;;5098752;28;20451;-69
2023/12/12 11:53:11;;;;;;;7.57;1.40;;;9.90;99.90;;;;;;5095666;27;20458;-67
2023/12/12 11:55:42;;;;;;;6.83;1.37;;;10.00;99.90;;;;;;5100120;28;20449;-69
2023/12/12 11:58:13;;;;;;;7.43;1.60;;;10.10;99.90;;;;;;5102517;28;20442;-68
2023/12/12 12:00:43;;;;;;;6.80;1.00;;;10.20;99.90;;;;;;5098596;27;20963;-70
2023/12/12 12:03:11;;;;;;;6.40;1.30;;;10.20;99.90;;;;;;5094133;28;20480;-71
2023/12/12 12:05:39;;;;;;;5.90;1.00;;;10.30;99.90;;;;;;5093603;28;21237;-69
2023/12/12 12:08:09;;;;;;;6.33;1.13;;;10.20;99.90;;;;;;5092612;28;20458;-70
2023/12/12 12:10:37;;;;;;;8.00;1.50;;;10.20;99.90;;;;;;5087009;28;20453;-69
2023/12/12 12:13:05;;;;;;;6.33;0.93;;;10.20;99.90;;;;;;5094623;28;20454;-68
2023/12/12 12:15:34;;;;;;;6.07;1.20;;;10.20;99.90;;;;;;5091683;28;20446;-66
2023/12/12 12:18:02;;;;;;;7.00;1.17;;;10.20;99.90;;;;;;5097314;28;20587;-66
2023/12/12 12:20:45;;;;;;;6.60;1.43;;;10.20;99.90;;;;;;5097533;28;20606;-65
2023/12/12 12:23:13;;;;;;;7.60;1.50;;;10.30;99.90;;;;;;5092663;27;20486;-67
2023/12/12 12:25:41;;;;;;;6.63;1.37;;;10.30;99.90;;;;;;5093677;27;20520;-67
2023/12/12 12:28:09;;;;;;;6.67;1.67;;;10.40;99.90;;;;;;5092339;28;20451;-66
2023/12/12 12:30:46;;;;;;;6.60;1.70;;;10.40;99.90;;;;;;5091851;27;20944;-66
2023/12/12 12:33:14;;;;;;;7.17;1.70;;;10.40;99.90;;;;;;5098043;27;20446;-68
2023/12/12 12:35:51;;;;;;;7.40;2.10;;;10.50;99.90;;;;;;5102913;27;20457;-68
2023/12/12 12:38:26;;;;;;;7.43;2.43;;;10.50;99.90;;;;;;5105868;27;20489;-67
2023/12/12 12:40:55;;;;;;;6.70;1.60;;;10.50;99.90;;;;;;5102524;27;20445;-68
2023/12/12 12:43:23;;;;;;;7.30;1.73;;;10.40;99.90;;;;;;5098763;28;20871;-69
2023/12/12 12:45:53;;;;;;;10.37;2.10;;;10.40;99.90;;;;;;5091998;28;20450;-68
2023/12/12 12:48:22;;;;;;;7.30;1.50;;;10.40;99.90;;;;;;5105712;28;20443;-66
2023/12/12 12:50:50;;;;;;;7.97;1.53;;;10.50;99.90;;;;;;5106148;28;20438;-70
2023/12/12 12:53:18;;;;;;;7.10;1.40;;;10.40;99.90;;;;;;5105386;28;20486;-68
2023/12/12 12:55:47;;;;;;;11.87;3.13;;;10.30;99.90;;;;;;5105372;28;20452;-68
2023/12/12 12:58:16;;;;;;;7.50;2.23;;;10.20;99.90;;;;;;5105688;28;20445;-68
2023/12/12 13:00:44;;;;;;;7.23;1.80;;;10.10;99.90;;;;;;5105730;28;20441;-68